Bookmark and Share
Track history (hours):
 

Akebono

Last reported at 2014-Apr-19 04:33 UTC. Time now 2014-Apr-19 05:04 UTC.
Position N 35°27' E 139°40'.

Length 33 m; draft 4.4 m.

Type: Tug. MMSI: 431000233.

NotesDate/timePositionNaut miles runAvg speedWind from/ knotsBaromVisibWave heightAir tempDewpointWater temp
2014-Apr-19 04:33N 35°27' E 139°40'1 0.8
2014-Apr-19 03:33N 35°27' E 139°39'0 0.0
2014-Apr-19 02:33N 35°27' E 139°39'0 0.0
2014-Apr-19 01:33N 35°27' E 139°39'0 0.0
2014-Apr-19 00:33N 35°27' E 139°39'0 0.0
2014-Apr-18 23:33N 35°27' E 139°39'0 0.0
2014-Apr-18 22:33N 35°27' E 139°39'2 1.5
2014-Apr-18 21:33N 35°27' E 139°41'1 1.5
2014-Apr-18 20:33N 35°27' E 139°40'1 0.1
2014-Apr-18 12:33N 35°27' E 139°41'3 3.1
2014-Apr-18 11:34N 35°24' E 139°41'1 1.4
2014-Apr-18 10:33N 35°23' E 139°41'0 0.2
2014-Apr-18 09:33N 35°23' E 139°41'3 2.5
2014-Apr-18 08:33N 35°25' E 139°41'2 1.9
2014-Apr-18 07:33N 35°27' E 139°39'0 0.0
2014-Apr-18 06:33N 35°27' E 139°39'0 0.0
2014-Apr-18 05:34N 35°27' E 139°39'0 0.0
2014-Apr-18 04:33N 35°27' E 139°39'0 0.0
2014-Apr-18 03:33N 35°27' E 139°39'0 0.0
2014-Apr-18 02:33N 35°27' E 139°39'2 2.0
2014-Apr-18 01:33N 35°27' E 139°42'3 2.9
2014-Apr-18 00:33N 35°29' E 139°44'4 3.6
2014-Apr-17 23:33N 35°28' E 139°40'0 0.4
2014-Apr-17 22:33N 35°28' E 139°40'2 2.0
2014-Apr-17 21:33N 35°27' E 139°43'2 2.3
2014-Apr-17 20:33N 35°27' E 139°40'0 0.0
2014-Apr-17 07:11N 35°27' E 139°39'0 0.0
2014-Apr-17 06:33N 35°27' E 139°39'0 0.0
2014-Apr-17 05:33N 35°27' E 139°39'0 0.0
2014-Apr-17 04:33N 35°27' E 139°39'0 0.0
2014-Apr-17 03:33N 35°27' E 139°39'0 0.0
2014-Apr-17 02:33N 35°27' E 139°39'0 0.0
2014-Apr-17 01:33N 35°27' E 139°39'0 0.0
2014-Apr-17 00:33N 35°27' E 139°39'0 0.0
2014-Apr-16 23:33N 35°27' E 139°39'2 1.7
2014-Apr-16 22:33N 35°28' E 139°41'4 3.5
2014-Apr-16 21:33N 35°26' E 139°44'4 4.1
2014-Apr-16 20:33N 35°27' E 139°40'0 0.0
2014-Apr-16 08:33N 35°27' E 139°40'5 5.5
2014-Apr-16 07:33N 35°28' E 139°46'1 1.2
2014-Apr-16 06:34N 35°28' E 139°48'1 0.8
2014-Apr-16 05:33N 35°28' E 139°47'6 5.9
2014-Apr-16 04:33N 35°27' E 139°40'1 0.8
2014-Apr-16 03:33N 35°27' E 139°40'0 0.2
2014-Apr-16 02:34N 35°27' E 139°39'0 0.0
2014-Apr-16 01:33N 35°27' E 139°39'0 0.1
2014-Apr-16 00:33N 35°27' E 139°39'0 0.0
2014-Apr-15 23:33N 35°27' E 139°39'1 1.3
2014-Apr-15 22:33N 35°27' E 139°41'2 1.8
2014-Apr-15 21:33N 35°26' E 139°43'3 3.0
2014-Apr-15 20:33N 35°27' E 139°40'0 0.1
2014-Apr-15 19:33N 35°27' E 139°39'1 0.1
2014-Apr-15 09:34N 35°27' E 139°40'1 1.3
2014-Apr-15 08:34N 35°27' E 139°42'1 1.3
2014-Apr-15 07:34N 35°27' E 139°40'1 0.7
2014-Apr-15 06:34N 35°27' E 139°39'0 0.0
2014-Apr-15 05:34N 35°27' E 139°39'0 0.0
2014-Apr-15 03:34N 35°27' E 139°39'4 3.5
2014-Apr-15 02:34N 35°28' E 139°44'1 1.2
2014-Apr-15 01:34N 35°29' E 139°45'1 0.8
2014-Apr-15 00:34N 35°28' E 139°46'1 1.3
2014-Apr-14 23:34N 35°29' E 139°44'1 0.8
2014-Apr-14 22:34N 35°29' E 139°45'2 1.8
2014-Apr-14 21:34N 35°30' E 139°43'4 4.2
2014-Apr-14 20:34N 35°27' E 139°39'2 0.2
2014-Apr-14 08:33N 35°28' E 139°42'1 0.9
2014-Apr-14 07:33N 35°27' E 139°43'2 2.2
2014-Apr-14 06:33N 35°27' E 139°40'1 0.6
2014-Apr-14 05:33N 35°27' E 139°39'6 0.9
2014-Apr-13 22:33N 35°30' E 139°46'3 3.5
2014-Apr-13 21:33N 35°27' E 139°44'3 3.5
2014-Apr-13 20:33N 35°27' E 139°39'0 0.0
2014-Apr-13 19:33N 35°27' E 139°39'0 0.0
2014-Apr-13 18:33N 35°27' E 139°39'0 0.0
2014-Apr-13 17:33N 35°27' E 139°39'0 0.0
2014-Apr-13 16:33N 35°27' E 139°39'0 0.0
2014-Apr-13 15:33N 35°27' E 139°39'0 0.0
2014-Apr-13 14:33N 35°27' E 139°39'0 0.0
2014-Apr-13 13:33N 35°27' E 139°39'0 0.0
2014-Apr-13 12:33N 35°27' E 139°39'1 1.3
2014-Apr-13 11:33N 35°27' E 139°41'1 1.5
2014-Apr-13 10:34N 35°26' E 139°42'1 0.8
2014-Apr-13 09:33N 35°26' E 139°42'2 1.7
2014-Apr-13 08:33N 35°28' E 139°42'1 1.1
2014-Apr-13 07:33N 35°28' E 139°41'0 0.0
2014-Apr-13 06:33N 35°28' E 139°41'0 0.0
2014-Apr-13 05:33N 35°28' E 139°41'0 0.0
2014-Apr-13 04:33N 35°28' E 139°41'3 2.8
2014-Apr-13 03:33N 35°29' E 139°43'3 2.9
2014-Apr-13 02:33N 35°31' E 139°46'3 2.5
2014-Apr-13 01:33N 35°29' E 139°47'8 7.9
2014-Apr-13 00:33N 35°24' E 139°39'3 2.6
2014-Apr-12 23:34N 35°26' E 139°42'2 2.3
2014-Apr-12 22:34N 35°27' E 139°39'0 0.0
2014-Apr-12 21:33N 35°27' E 139°39'0 0.0
2014-Apr-12 20:33N 35°27' E 139°39'0 0.0
2014-Apr-12 07:11N 35°27' E 139°39'4 5.9
2014-Apr-12 06:33N 35°24' E 139°41'3 2.5
2014-Apr-12 05:33N 35°24' E 139°38'2 1.5
2014-Apr-12 04:33N 35°23' E 139°40'3 3.0
2014-Apr-12 03:33N 35°25' E 139°43'4 3.9
2014-Apr-12 02:33N 35°29' E 139°44'3 2.9
2014-Apr-12 01:33N 35°26' E 139°46'3 3.2
2014-Apr-12 00:33N 35°28' E 139°42'0 0.0
2014-Apr-11 23:33N 35°28' E 139°42'1 1.0
2014-Apr-11 22:33N 35°27' E 139°43'1 0.8
2014-Apr-11 21:33N 35°27' E 139°42'2 2.3
2014-Apr-11 20:33N 35°27' E 139°39'0 0.0
2014-Apr-11 07:10N 35°27' E 139°39'0 0.0
2014-Apr-11 06:33N 35°27' E 139°39'1 1.0
2014-Apr-11 05:33N 35°28' E 139°41'0 0.0
2014-Apr-11 04:33N 35°28' E 139°41'0 0.0
2014-Apr-11 03:33N 35°28' E 139°41'1 1.0
2014-Apr-11 02:33N 35°27' E 139°41'1 1.1
2014-Apr-11 01:33N 35°28' E 139°40'0 0.0
2014-Apr-11 00:33N 35°28' E 139°40'0 0.0
2014-Apr-10 23:34N 35°28' E 139°40'1 0.6
2014-Apr-10 22:34N 35°27' E 139°41'2 1.5
2014-Apr-10 21:33N 35°26' E 139°42'2 2.3
2014-Apr-10 20:34N 35°27' E 139°40'1 0.1
2014-Apr-10 11:33N 35°27' E 139°40'1 1.3
2014-Apr-10 10:31N 35°26' E 139°42'3 2.8
2014-Apr-10 09:33N 35°24' E 139°41'0 0.1
2014-Apr-10 08:33N 35°24' E 139°41'3 3.5
2014-Apr-10 07:33N 35°27' E 139°39'0 0.0
2014-Apr-10 06:33N 35°27' E 139°39'1 0.8
2014-Apr-10 05:33N 35°27' E 139°40'1 0.9
2014-Apr-10 04:33N 35°28' E 139°40'0 0.0
2014-Apr-10 03:33N 35°28' E 139°40'0 0.0
2014-Apr-10 02:33N 35°28' E 139°40'0 0.0
2014-Apr-10 01:33N 35°28' E 139°40'0 0.0
2014-Apr-10 00:33N 35°28' E 139°40'3 2.7
2014-Apr-09 23:33N 35°27' E 139°44'3 3.1
2014-Apr-09 22:33N 35°27' E 139°47'6 6.5
2014-Apr-09 21:33N 35°27' E 139°39'0 0.0
2014-Apr-09 07:33N 35°27' E 139°40'3 2.6
2014-Apr-09 06:34N 35°26' E 139°43'1 0.8
2014-Apr-09 05:33N 35°27' E 139°42'0 0.0
2014-Apr-09 04:33N 35°27' E 139°42'  

Dump ship's entire track history

sailing weather and tide predictions

Akebono — JG5644 — position and weather